sensor_id;sensor_type;location;lat;lon;timestamp;P1;durP1;ratioP1;P2;durP2;ratioP2
56043;SDS011;41912;51.022;3.664;2023-04-24T00:01:25;18.48;;;10.65;;
56043;SDS011;41912;51.022;3.664;2023-04-24T00:03:50;19.73;;;10.95;;
56043;SDS011;41912;51.022;3.664;2023-04-24T00:06:16;22.83;;;9.82;;
56043;SDS011;41912;51.022;3.664;2023-04-24T00:08:42;23.30;;;9.68;;
56043;SDS011;41912;51.022;3.664;2023-04-24T00:11:08;24.85;;;9.57;;
56043;SDS011;41912;51.022;3.664;2023-04-24T00:13:34;15.45;;;9.07;;
56043;SDS011;41912;51.022;3.664;2023-04-24T00:16:00;20.98;;;10.27;;
56043;SDS011;41912;51.022;3.664;2023-04-24T00:18:26;15.93;;;9.73;;
56043;SDS011;41912;51.022;3.664;2023-04-24T00:20:51;15.05;;;8.57;;
56043;SDS011;41912;51.022;3.664;2023-04-24T00:23:17;17.40;;;9.40;;
56043;SDS011;41912;51.022;3.664;2023-04-24T00:25:43;16.15;;;9.50;;
56043;SDS011;41912;51.022;3.664;2023-04-24T00:28:08;14.23;;;8.85;;
56043;SDS011;41912;51.022;3.664;2023-04-24T00:30:34;12.15;;;8.00;;
56043;SDS011;41912;51.022;3.664;2023-04-24T00:33:00;11.32;;;7.72;;
56043;SDS011;41912;51.022;3.664;2023-04-24T00:35:26;12.77;;;8.05;;
56043;SDS011;41912;51.022;3.664;2023-04-24T00:37:52;13.60;;;7.22;;
56043;SDS011;41912;51.022;3.664;2023-04-24T00:40:17;10.93;;;6.75;;
56043;SDS011;41912;51.022;3.664;2023-04-24T00:42:43;12.93;;;7.10;;
56043;SDS011;41912;51.022;3.664;2023-04-24T00:45:09;9.48;;;6.53;;
56043;SDS011;41912;51.022;3.664;2023-04-24T00:47:35;10.77;;;6.63;;
56043;SDS011;41912;51.022;3.664;2023-04-24T00:50:05;12.48;;;7.00;;
56043;SDS011;41912;51.022;3.664;2023-04-24T00:52:31;13.65;;;7.70;;
56043;SDS011;41912;51.022;3.664;2023-04-24T00:54:57;11.35;;;6.80;;
56043;SDS011;41912;51.022;3.664;2023-04-24T00:57:23;12.18;;;7.18;;
56043;SDS011;41912;51.022;3.664;2023-04-24T00:59:50;11.75;;;6.97;;
56043;SDS011;41912;51.022;3.664;2023-04-24T01:02:18;11.02;;;6.90;;
56043;SDS011;41912;51.022;3.664;2023-04-24T01:04:44;12.80;;;7.40;;
56043;SDS011;41912;51.022;3.664;2023-04-24T01:07:10;11.77;;;6.72;;
56043;SDS011;41912;51.022;3.664;2023-04-24T01:09:42;8.52;;;6.15;;
56043;SDS011;41912;51.022;3.664;2023-04-24T01:12:12;8.85;;;6.13;;
56043;SDS011;41912;51.022;3.664;2023-04-24T01:14:37;9.57;;;6.18;;
56043;SDS011;41912;51.022;3.664;2023-04-24T01:17:04;8.88;;;6.05;;
56043;SDS011;41912;51.022;3.664;2023-04-24T01:19:29;12.38;;;6.97;;
56043;SDS011;41912;51.022;3.664;2023-04-24T01:21:56;8.55;;;6.20;;
56043;SDS011;41912;51.022;3.664;2023-04-24T01:24:24;8.57;;;5.93;;
56043;SDS011;41912;51.022;3.664;2023-04-24T01:26:49;10.65;;;7.18;;
56043;SDS011;41912;51.022;3.664;2023-04-24T01:29:15;9.52;;;7.18;;
56043;SDS011;41912;51.022;3.664;2023-04-24T01:31:41;12.73;;;8.38;;
56043;SDS011;41912;51.022;3.664;2023-04-24T01:34:07;11.75;;;8.38;;
56043;SDS011;41912;51.022;3.664;2023-04-24T01:36:33;12.02;;;7.63;;
56043;SDS011;41912;51.022;3.664;2023-04-24T01:39:01;12.70;;;8.20;;
56043;SDS011;41912;51.022;3.664;2023-04-24T01:41:27;10.70;;;7.65;;
56043;SDS011;41912;51.022;3.664;2023-04-24T01:43:54;12.07;;;8.23;;
56043;SDS011;41912;51.022;3.664;2023-04-24T01:46:20;13.20;;;8.73;;
56043;SDS011;41912;51.022;3.664;2023-04-24T01:48:45;13.10;;;8.43;;
56043;SDS011;41912;51.022;3.664;2023-04-24T01:51:11;11.77;;;8.05;;
56043;SDS011;41912;51.022;3.664;2023-04-24T01:53:37;14.32;;;9.32;;
56043;SDS011;41912;51.022;3.664;2023-04-24T01:56:03;14.73;;;9.43;;
56043;SDS011;41912;51.022;3.664;2023-04-24T01:58:29;13.23;;;9.07;;
56043;SDS011;41912;51.022;3.664;2023-04-24T02:00:58;13.57;;;9.52;;
56043;SDS011;41912;51.022;3.664;2023-04-24T02:03:25;11.13;;;8.85;;
56043;SDS011;41912;51.022;3.664;2023-04-24T02:05:51;12.45;;;9.50;;
56043;SDS011;41912;51.022;3.664;2023-04-24T02:08:17;13.23;;;9.75;;
56043;SDS011;41912;51.022;3.664;2023-04-24T02:10:42;12.98;;;9.30;;
56043;SDS011;41912;51.022;3.664;2023-04-24T02:13:09;14.43;;;9.98;;
56043;SDS011;41912;51.022;3.664;2023-04-24T02:15:35;14.88;;;10.73;;
56043;SDS011;41912;51.022;3.664;2023-04-24T02:18:01;14.70;;;9.85;;
56043;SDS011;41912;51.022;3.664;2023-04-24T02:20:26;14.15;;;9.98;;
56043;SDS011;41912;51.022;3.664;2023-04-24T02:22:52;17.52;;;10.55;;
56043;SDS011;41912;51.022;3.664;2023-04-24T02:25:18;15.02;;;10.93;;
56043;SDS011;41912;51.022;3.664;2023-04-24T02:27:43;15.57;;;10.95;;
56043;SDS011;41912;51.022;3.664;2023-04-24T02:30:09;15.90;;;11.60;;
56043;SDS011;41912;51.022;3.664;2023-04-24T02:32:35;15.48;;;10.60;;
56043;SDS011;41912;51.022;3.664;2023-04-24T02:35:01;16.58;;;10.20;;
56043;SDS011;41912;51.022;3.664;2023-04-24T02:37:26;13.77;;;9.68;;
56043;SDS011;41912;51.022;3.664;2023-04-24T02:39:52;11.93;;;8.73;;
56043;SDS011;41912;51.022;3.664;2023-04-24T02:42:17;12.93;;;9.20;;
56043;SDS011;41912;51.022;3.664;2023-04-24T02:44:43;11.15;;;8.18;;
56043;SDS011;41912;51.022;3.664;2023-04-24T02:47:08;11.32;;;8.48;;
56043;SDS011;41912;51.022;3.664;2023-04-24T02:49:34;9.35;;;6.75;;
56043;SDS011;41912;51.022;3.664;2023-04-24T02:52:00;14.07;;;6.10;;
56043;SDS011;41912;51.022;3.664;2023-04-24T02:54:25;10.73;;;5.90;;
56043;SDS011;41912;51.022;3.664;2023-04-24T02:56:51;9.85;;;4.50;;
56043;SDS011;41912;51.022;3.664;2023-04-24T02:59:16;11.10;;;3.58;;
56043;SDS011;41912;51.022;3.664;2023-04-24T03:01:42;7.32;;;3.72;;
56043;SDS011;41912;51.022;3.664;2023-04-24T03:04:08;8.10;;;3.28;;
56043;SDS011;41912;51.022;3.664;2023-04-24T03:06:33;8.65;;;3.13;;
56043;SDS011;41912;51.022;3.664;2023-04-24T03:09:00;12.10;;;3.25;;
56043;SDS011;41912;51.022;3.664;2023-04-24T03:11:26;13.50;;;3.65;;
56043;SDS011;41912;51.022;3.664;2023-04-24T03:13:51;9.27;;;3.40;;
56043;SDS011;41912;51.022;3.664;2023-04-24T03:16:17;10.13;;;3.50;;
56043;SDS011;41912;51.022;3.664;2023-04-24T03:18:42;10.75;;;3.53;;
56043;SDS011;41912;51.022;3.664;2023-04-24T03:21:08;14.60;;;3.92;;
56043;SDS011;41912;51.022;3.664;2023-04-24T03:23:34;8.50;;;4.45;;
56043;SDS011;41912;51.022;3.664;2023-04-24T03:25:59;13.50;;;4.63;;
56043;SDS011;41912;51.022;3.664;2023-04-24T03:28:25;12.50;;;5.05;;
56043;SDS011;41912;51.022;3.664;2023-04-24T03:30:51;10.52;;;4.90;;
56043;SDS011;41912;51.022;3.664;2023-04-24T03:33:17;10.93;;;5.45;;
56043;SDS011;41912;51.022;3.664;2023-04-24T03:35:42;12.27;;;5.07;;
56043;SDS011;41912;51.022;3.664;2023-04-24T03:38:08;20.85;;;7.55;;
56043;SDS011;41912;51.022;3.664;2023-04-24T03:40:33;12.38;;;6.22;;
56043;SDS011;41912;51.022;3.664;2023-04-24T03:42:59;15.35;;;6.70;;
56043;SDS011;41912;51.022;3.664;2023-04-24T03:45:25;13.18;;;8.05;;
56043;SDS011;41912;51.022;3.664;2023-04-24T03:47:50;15.15;;;8.13;;
56043;SDS011;41912;51.022;3.664;2023-04-24T03:50:16;18.33;;;7.78;;
56043;SDS011;41912;51.022;3.664;2023-04-24T03:52:42;13.60;;;8.50;;
56043;SDS011;41912;51.022;3.664;2023-04-24T03:55:07;16.75;;;8.10;;
56043;SDS011;41912;51.022;3.664;2023-04-24T03:57:33;18.88;;;9.02;;
56043;SDS011;41912;51.022;3.664;2023-04-24T03:59:59;26.60;;;9.65;;
56043;SDS011;41912;51.022;3.664;2023-04-24T04:02:24;19.10;;;9.52;;
56043;SDS011;41912;51.022;3.664;2023-04-24T04:04:50;20.60;;;8.95;;
56043;SDS011;41912;51.022;3.664;2023-04-24T04:07:16;18.27;;;8.43;;
56043;SDS011;41912;51.022;3.664;2023-04-24T04:09:41;19.33;;;9.10;;
56043;SDS011;41912;51.022;3.664;2023-04-24T04:12:07;17.67;;;8.90;;
56043;SDS011;41912;51.022;3.664;2023-04-24T04:14:32;18.17;;;8.88;;
56043;SDS011;41912;51.022;3.664;2023-04-24T04:16:58;22.40;;;9.65;;
56043;SDS011;41912;51.022;3.664;2023-04-24T04:19:24;14.88;;;9.02;;
56043;SDS011;41912;51.022;3.664;2023-04-24T04:21:50;19.98;;;9.40;;
56043;SDS011;41912;51.022;3.664;2023-04-24T04:24:18;16.60;;;8.57;;
56043;SDS011;41912;51.022;3.664;2023-04-24T04:26:45;18.40;;;9.15;;
56043;SDS011;41912;51.022;3.664;2023-04-24T04:29:12;21.45;;;9.05;;
56043;SDS011;41912;51.022;3.664;2023-04-24T04:31:38;19.33;;;8.90;;
56043;SDS011;41912;51.022;3.664;2023-04-24T04:34:04;16.88;;;8.20;;
56043;SDS011;41912;51.022;3.664;2023-04-24T04:36:30;15.02;;;8.52;;
56043;SDS011;41912;51.022;3.664;2023-04-24T04:38:56;16.98;;;9.18;;
56043;SDS011;41912;51.022;3.664;2023-04-24T04:41:24;18.05;;;9.20;;
56043;SDS011;41912;51.022;3.664;2023-04-24T04:43:50;15.73;;;8.40;;
56043;SDS011;41912;51.022;3.664;2023-04-24T04:46:15;15.50;;;8.38;;
56043;SDS011;41912;51.022;3.664;2023-04-24T04:48:41;19.17;;;8.65;;
56043;SDS011;41912;51.022;3.664;2023-04-24T04:51:07;15.60;;;8.50;;
56043;SDS011;41912;51.022;3.664;2023-04-24T04:53:32;16.88;;;8.82;;
56043;SDS011;41912;51.022;3.664;2023-04-24T04:55:58;16.85;;;9.38;;
56043;SDS011;41912;51.022;3.664;2023-04-24T04:58:24;18.00;;;8.95;;
56043;SDS011;41912;51.022;3.664;2023-04-24T05:00:50;16.40;;;8.70;;
56043;SDS011;41912;51.022;3.664;2023-04-24T05:03:16;16.50;;;8.98;;
56043;SDS011;41912;51.022;3.664;2023-04-24T05:05:41;17.13;;;8.55;;
56043;SDS011;41912;51.022;3.664;2023-04-24T05:08:07;19.80;;;8.55;;
56043;SDS011;41912;51.022;3.664;2023-04-24T05:10:33;18.42;;;9.80;;
56043;SDS011;41912;51.022;3.664;2023-04-24T05:12:59;22.58;;;9.27;;
56043;SDS011;41912;51.022;3.664;2023-04-24T05:15:25;20.23;;;9.27;;
56043;SDS011;41912;51.022;3.664;2023-04-24T05:17:51;19.80;;;8.45;;
56043;SDS011;41912;51.022;3.664;2023-04-24T05:20:17;19.30;;;8.50;;
56043;SDS011;41912;51.022;3.664;2023-04-24T05:22:42;21.52;;;8.98;;
56043;SDS011;41912;51.022;3.664;2023-04-24T05:25:08;18.13;;;8.98;;
56043;SDS011;41912;51.022;3.664;2023-04-24T05:27:34;15.73;;;9.15;;
56043;SDS011;41912;51.022;3.664;2023-04-24T05:29:59;19.08;;;8.70;;
56043;SDS011;41912;51.022;3.664;2023-04-24T05:32:25;19.20;;;9.27;;
56043;SDS011;41912;51.022;3.664;2023-04-24T05:34:52;18.85;;;9.93;;
56043;SDS011;41912;51.022;3.664;2023-04-24T05:37:17;24.67;;;10.57;;
56043;SDS011;41912;51.022;3.664;2023-04-24T05:39:43;19.67;;;10.45;;
56043;SDS011;41912;51.022;3.664;2023-04-24T05:42:08;23.67;;;10.60;;
56043;SDS011;41912;51.022;3.664;2023-04-24T05:44:34;23.20;;;11.20;;
56043;SDS011;41912;51.022;3.664;2023-04-24T05:47:00;22.13;;;12.50;;
56043;SDS011;41912;51.022;3.664;2023-04-24T05:49:26;20.35;;;11.48;;
56043;SDS011;41912;51.022;3.664;2023-04-24T05:51:52;25.02;;;12.88;;
56043;SDS011;41912;51.022;3.664;2023-04-24T05:54:18;22.83;;;11.35;;
56043;SDS011;41912;51.022;3.664;2023-04-24T05:56:43;31.05;;;12.73;;
56043;SDS011;41912;51.022;3.664;2023-04-24T05:59:09;29.08;;;12.57;;
56043;SDS011;41912;51.022;3.664;2023-04-24T06:01:35;31.55;;;13.02;;
56043;SDS011;41912;51.022;3.664;2023-04-24T06:04:01;25.05;;;12.55;;
56043;SDS011;41912;51.022;3.664;2023-04-24T06:06:27;27.75;;;12.73;;
56043;SDS011;41912;51.022;3.664;2023-04-24T06:08:53;31.48;;;13.63;;
56043;SDS011;41912;51.022;3.664;2023-04-24T06:11:19;26.88;;;13.35;;
56043;SDS011;41912;51.022;3.664;2023-04-24T06:13:45;29.25;;;13.75;;
56043;SDS011;41912;51.022;3.664;2023-04-24T06:16:10;39.80;;;13.75;;
56043;SDS011;41912;51.022;3.664;2023-04-24T06:18:36;30.13;;;13.05;;
56043;SDS011;41912;51.022;3.664;2023-04-24T06:21:02;28.00;;;12.88;;
56043;SDS011;41912;51.022;3.664;2023-04-24T06:23:27;26.75;;;12.30;;
56043;SDS011;41912;51.022;3.664;2023-04-24T06:25:54;39.47;;;14.27;;
56043;SDS011;41912;51.022;3.664;2023-04-24T06:28:19;29.98;;;12.77;;
56043;SDS011;41912;51.022;3.664;2023-04-24T06:30:45;27.27;;;11.40;;
56043;SDS011;41912;51.022;3.664;2023-04-24T06:33:11;22.90;;;11.13;;
56043;SDS011;41912;51.022;3.664;2023-04-24T06:35:36;21.48;;;10.57;;
56043;SDS011;41912;51.022;3.664;2023-04-24T06:38:03;21.25;;;11.77;;
56043;SDS011;41912;51.022;3.664;2023-04-24T06:40:28;23.70;;;11.45;;
56043;SDS011;41912;51.022;3.664;2023-04-24T06:42:54;27.48;;;11.55;;
56043;SDS011;41912;51.022;3.664;2023-04-24T06:45:20;27.38;;;11.82;;
56043;SDS011;41912;51.022;3.664;2023-04-24T06:47:46;29.58;;;11.88;;
56043;SDS011;41912;51.022;3.664;2023-04-24T06:50:12;25.08;;;10.00;;
56043;SDS011;41912;51.022;3.664;2023-04-24T06:52:37;26.58;;;10.45;;
56043;SDS011;41912;51.022;3.664;2023-04-24T06:55:03;19.95;;;9.45;;
56043;SDS011;41912;51.022;3.664;2023-04-24T06:57:29;22.15;;;9.40;;
56043;SDS011;41912;51.022;3.664;2023-04-24T06:59:56;24.48;;;9.95;;
56043;SDS011;41912;51.022;3.664;2023-04-24T07:02:21;24.88;;;9.20;;
56043;SDS011;41912;51.022;3.664;2023-04-24T07:04:47;23.13;;;8.48;;
56043;SDS011;41912;51.022;3.664;2023-04-24T07:07:13;24.77;;;8.65;;
56043;SDS011;41912;51.022;3.664;2023-04-24T07:09:39;20.33;;;8.38;;
56043;SDS011;41912;51.022;3.664;2023-04-24T07:12:10;20.70;;;9.18;;
56043;SDS011;41912;51.022;3.664;2023-04-24T07:14:39;22.52;;;8.15;;
56043;SDS011;41912;51.022;3.664;2023-04-24T07:17:05;21.27;;;8.57;;
56043;SDS011;41912;51.022;3.664;2023-04-24T07:19:31;25.58;;;8.50;;
56043;SDS011;41912;51.022;3.664;2023-04-24T07:21:58;31.65;;;8.98;;
56043;SDS011;41912;51.022;3.664;2023-04-24T07:24:24;24.70;;;7.88;;
56043;SDS011;41912;51.022;3.664;2023-04-24T07:26:51;19.92;;;7.93;;
56043;SDS011;41912;51.022;3.664;2023-04-24T07:29:17;22.58;;;7.40;;
56043;SDS011;41912;51.022;3.664;2023-04-24T07:31:43;14.27;;;6.88;;
56043;SDS011;41912;51.022;3.664;2023-04-24T07:34:09;22.88;;;7.13;;
56043;SDS011;41912;51.022;3.664;2023-04-24T07:36:34;22.30;;;7.88;;
56043;SDS011;41912;51.022;3.664;2023-04-24T07:39:00;19.52;;;8.30;;
56043;SDS011;41912;51.022;3.664;2023-04-24T07:41:26;17.27;;;6.80;;
56043;SDS011;41912;51.022;3.664;2023-04-24T07:43:53;19.70;;;7.25;;
56043;SDS011;41912;51.022;3.664;2023-04-24T07:46:18;17.75;;;6.60;;
56043;SDS011;41912;51.022;3.664;2023-04-24T07:48:45;26.13;;;7.07;;
56043;SDS011;41912;51.022;3.664;2023-04-24T07:51:12;17.17;;;6.35;;
56043;SDS011;41912;51.022;3.664;2023-04-24T07:53:39;22.48;;;7.50;;
56043;SDS011;41912;51.022;3.664;2023-04-24T07:56:05;19.35;;;7.10;;
56043;SDS011;41912;51.022;3.664;2023-04-24T07:58:31;12.57;;;6.15;;
56043;SDS011;41912;51.022;3.664;2023-04-24T08:00:57;15.32;;;5.20;;
56043;SDS011;41912;51.022;3.664;2023-04-24T08:03:22;21.40;;;6.00;;
56043;SDS011;41912;51.022;3.664;2023-04-24T08:05:49;16.63;;;4.72;;
56043;SDS011;41912;51.022;3.664;2023-04-24T08:08:16;23.77;;;5.05;;
56043;SDS011;41912;51.022;3.664;2023-04-24T08:10:41;18.88;;;4.88;;
56043;SDS011;41912;51.022;3.664;2023-04-24T08:13:07;14.90;;;5.03;;
56043;SDS011;41912;51.022;3.664;2023-04-24T08:15:33;13.73;;;4.82;;
56043;SDS011;41912;51.022;3.664;2023-04-24T08:17:58;17.30;;;5.15;;
56043;SDS011;41912;51.022;3.664;2023-04-24T08:20:24;14.80;;;5.30;;
56043;SDS011;41912;51.022;3.664;2023-04-24T08:22:53;10.40;;;4.30;;
56043;SDS011;41912;51.022;3.664;2023-04-24T08:25:19;14.15;;;4.10;;
56043;SDS011;41912;51.022;3.664;2023-04-24T08:27:45;15.32;;;5.47;;
56043;SDS011;41912;51.022;3.664;2023-04-24T08:30:11;16.20;;;4.55;;
56043;SDS011;41912;51.022;3.664;2023-04-24T08:32:36;18.23;;;4.63;;
56043;SDS011;41912;51.022;3.664;2023-04-24T08:35:02;23.25;;;5.90;;
56043;SDS011;41912;51.022;3.664;2023-04-24T08:37:28;12.27;;;4.47;;
56043;SDS011;41912;51.022;3.664;2023-04-24T08:39:54;13.27;;;3.88;;
56043;SDS011;41912;51.022;3.664;2023-04-24T08:42:20;14.70;;;4.60;;
56043;SDS011;41912;51.022;3.664;2023-04-24T08:44:47;12.27;;;3.80;;
56043;SDS011;41912;51.022;3.664;2023-04-24T08:47:14;15.70;;;4.38;;
56043;SDS011;41912;51.022;3.664;2023-04-24T08:49:40;11.50;;;4.20;;
56043;SDS011;41912;51.022;3.664;2023-04-24T08:52:07;13.20;;;4.03;;
56043;SDS011;41912;51.022;3.664;2023-04-24T08:54:34;17.55;;;5.07;;
56043;SDS011;41912;51.022;3.664;2023-04-24T08:57:00;12.63;;;5.30;;
56043;SDS011;41912;51.022;3.664;2023-04-24T08:59:28;14.07;;;4.75;;
56043;SDS011;41912;51.022;3.664;2023-04-24T09:01:56;10.02;;;3.92;;
56043;SDS011;41912;51.022;3.664;2023-04-24T09:04:22;9.82;;;4.15;;
56043;SDS011;41912;51.022;3.664;2023-04-24T09:06:53;10.25;;;4.55;;
56043;SDS011;41912;51.022;3.664;2023-04-24T09:09:21;12.02;;;4.78;;
56043;SDS011;41912;51.022;3.664;2023-04-24T09:11:51;10.25;;;4.03;;
56043;SDS011;41912;51.022;3.664;2023-04-24T09:14:20;13.48;;;4.47;;
56043;SDS011;41912;51.022;3.664;2023-04-24T09:16:48;9.23;;;4.55;;
56043;SDS011;41912;51.022;3.664;2023-04-24T09:19:13;12.10;;;4.38;;
56043;SDS011;41912;51.022;3.664;2023-04-24T09:21:39;18.75;;;4.28;;
56043;SDS011;41912;51.022;3.664;2023-04-24T09:24:07;12.75;;;4.82;;
56043;SDS011;41912;51.022;3.664;2023-04-24T09:26:39;10.07;;;3.88;;
56043;SDS011;41912;51.022;3.664;2023-04-24T09:29:05;9.00;;;4.05;;
56043;SDS011;41912;51.022;3.664;2023-04-24T09:31:31;15.63;;;4.75;;
56043;SDS011;41912;51.022;3.664;2023-04-24T09:36:32;10.13;;;4.18;;
56043;SDS011;41912;51.022;3.664;2023-04-24T09:39:02;9.93;;;4.50;;
56043;SDS011;41912;51.022;3.664;2023-04-24T09:41:36;13.65;;;4.72;;
56043;SDS011;41912;51.022;3.664;2023-04-24T09:44:13;12.80;;;4.30;;
56043;SDS011;41912;51.022;3.664;2023-04-24T09:46:50;11.73;;;4.18;;
56043;SDS011;41912;51.022;3.664;2023-04-24T09:49:24;12.20;;;4.65;;
56043;SDS011;41912;51.022;3.664;2023-04-24T09:51:51;9.23;;;4.10;;
56043;SDS011;41912;51.022;3.664;2023-04-24T09:54:18;12.48;;;4.25;;
56043;SDS011;41912;51.022;3.664;2023-04-24T09:56:46;10.68;;;4.00;;
56043;SDS011;41912;51.022;3.664;2023-04-24T09:59:13;10.30;;;4.65;;
56043;SDS011;41912;51.022;3.664;2023-04-24T10:01:40;14.25;;;5.53;;
56043;SDS011;41912;51.022;3.664;2023-04-24T10:04:19;10.45;;;3.70;;
56043;SDS011;41912;51.022;3.664;2023-04-24T10:06:54;10.30;;;4.15;;
56043;SDS011;41912;51.022;3.664;2023-04-24T10:09:22;8.27;;;4.28;;
56043;SDS011;41912;51.022;3.664;2023-04-24T10:11:50;8.20;;;3.80;;
56043;SDS011;41912;51.022;3.664;2023-04-24T10:14:20;14.80;;;4.65;;
56043;SDS011;41912;51.022;3.664;2023-04-24T10:16:49;12.38;;;4.30;;
56043;SDS011;41912;51.022;3.664;2023-04-24T10:19:17;14.82;;;4.43;;
56043;SDS011;41912;51.022;3.664;2023-04-24T10:21:43;9.35;;;3.35;;
56043;SDS011;41912;51.022;3.664;2023-04-24T10:24:13;16.20;;;5.00;;
56043;SDS011;41912;51.022;3.664;2023-04-24T10:26:40;11.98;;;4.22;;
56043;SDS011;41912;51.022;3.664;2023-04-24T10:29:06;9.82;;;4.00;;
56043;SDS011;41912;51.022;3.664;2023-04-24T10:31:37;11.65;;;4.55;;
56043;SDS011;41912;51.022;3.664;2023-04-24T10:34:04;14.82;;;4.80;;
56043;SDS011;41912;51.022;3.664;2023-04-24T10:36:31;12.68;;;4.60;;
56043;SDS011;41912;51.022;3.664;2023-04-24T10:38:59;12.50;;;4.75;;
56043;SDS011;41912;51.022;3.664;2023-04-24T10:41:27;9.13;;;4.95;;
56043;SDS011;41912;51.022;3.664;2023-04-24T10:44:07;10.18;;;4.20;;
56043;SDS011;41912;51.022;3.664;2023-04-24T10:46:33;13.52;;;4.72;;
56043;SDS011;41912;51.022;3.664;2023-04-24T10:48:59;12.98;;;4.47;;
56043;SDS011;41912;51.022;3.664;2023-04-24T10:51:50;8.93;;;4.50;;
56043;SDS011;41912;51.022;3.664;2023-04-24T10:59:43;10.38;;;4.32;;
56043;SDS011;41912;51.022;3.664;2023-04-24T11:02:09;9.27;;;4.20;;
56043;SDS011;41912;51.022;3.664;2023-04-24T11:04:35;11.60;;;4.63;;
56043;SDS011;41912;51.022;3.664;2023-04-24T11:07:04;9.27;;;4.55;;
56043;SDS011;41912;51.022;3.664;2023-04-24T11:09:30;12.30;;;4.20;;
56043;SDS011;41912;51.022;3.664;2023-04-24T11:12:31;10.38;;;4.00;;
56043;SDS011;41912;51.022;3.664;2023-04-24T11:17:31;13.18;;;4.40;;
56043;SDS011;41912;51.022;3.664;2023-04-24T11:20:05;10.20;;;4.25;;
56043;SDS011;41912;51.022;3.664;2023-04-24T11:22:41;8.93;;;4.50;;
56043;SDS011;41912;51.022;3.664;2023-04-24T11:25:07;8.50;;;3.95;;
56043;SDS011;41912;51.022;3.664;2023-04-24T11:30:05;10.80;;;3.63;;
56043;SDS011;41912;51.022;3.664;2023-04-24T11:37:27;9.73;;;4.10;;
56043;SDS011;41912;51.022;3.664;2023-04-24T11:39:55;8.57;;;3.60;;
56043;SDS011;41912;51.022;3.664;2023-04-24T11:42:22;12.27;;;3.15;;
56043;SDS011;41912;51.022;3.664;2023-04-24T11:44:49;8.05;;;3.03;;
56043;SDS011;41912;51.022;3.664;2023-04-24T11:47:16;12.27;;;3.58;;
56043;SDS011;41912;51.022;3.664;2023-04-24T11:49:42;8.95;;;2.70;;
56043;SDS011;41912;51.022;3.664;2023-04-24T11:52:08;11.88;;;2.97;;
56043;SDS011;41912;51.022;3.664;2023-04-24T11:54:34;6.80;;;2.72;;
56043;SDS011;41912;51.022;3.664;2023-04-24T11:56:59;7.00;;;2.30;;
56043;SDS011;41912;51.022;3.664;2023-04-24T11:59:34;9.52;;;2.90;;
56043;SDS011;41912;51.022;3.664;2023-04-24T12:02:01;7.78;;;2.92;;
56043;SDS011;41912;51.022;3.664;2023-04-24T12:04:27;13.20;;;2.75;;
56043;SDS011;41912;51.022;3.664;2023-04-24T12:07:06;5.70;;;2.65;;
56043;SDS011;41912;51.022;3.664;2023-04-24T12:09:40;7.53;;;2.58;;
56043;SDS011;41912;51.022;3.664;2023-04-24T12:12:07;5.57;;;2.33;;
56043;SDS011;41912;51.022;3.664;2023-04-24T12:14:41;9.35;;;2.50;;
56043;SDS011;41912;51.022;3.664;2023-04-24T12:17:13;9.98;;;2.17;;
56043;SDS011;41912;51.022;3.664;2023-04-24T12:19:44;9.23;;;2.25;;
56043;SDS011;41912;51.022;3.664;2023-04-24T12:24:54;6.30;;;1.92;;
56043;SDS011;41912;51.022;3.664;2023-04-24T12:27:22;8.70;;;2.00;;
56043;SDS011;41912;51.022;3.664;2023-04-24T12:29:51;10.05;;;2.20;;
56043;SDS011;41912;51.022;3.664;2023-04-24T12:32:21;6.28;;;1.90;;
56043;SDS011;41912;51.022;3.664;2023-04-24T12:34:47;4.25;;;1.65;;
56043;SDS011;41912;51.022;3.664;2023-04-24T12:37:14;6.57;;;1.77;;
56043;SDS011;41912;51.022;3.664;2023-04-24T12:39:44;11.70;;;2.00;;
56043;SDS011;41912;51.022;3.664;2023-04-24T12:42:31;4.07;;;1.77;;
56043;SDS011;41912;51.022;3.664;2023-04-24T12:45:01;5.70;;;1.55;;
56043;SDS011;41912;51.022;3.664;2023-04-24T12:47:30;5.32;;;1.52;;
56043;SDS011;41912;51.022;3.664;2023-04-24T12:49:56;9.82;;;1.67;;
56043;SDS011;41912;51.022;3.664;2023-04-24T12:52:22;6.32;;;1.88;;
56043;SDS011;41912;51.022;3.664;2023-04-24T12:54:49;4.88;;;1.63;;
56043;SDS011;41912;51.022;3.664;2023-04-24T12:57:16;8.55;;;1.65;;
56043;SDS011;41912;51.022;3.664;2023-04-24T12:59:42;5.15;;;1.52;;
56043;SDS011;41912;51.022;3.664;2023-04-24T13:02:08;6.53;;;1.92;;
56043;SDS011;41912;51.022;3.664;2023-04-24T13:04:35;3.75;;;1.40;;
56043;SDS011;41912;51.022;3.664;2023-04-24T13:07:00;8.52;;;1.77;;
56043;SDS011;41912;51.022;3.664;2023-04-24T13:09:26;3.55;;;1.63;;
56043;SDS011;41912;51.022;3.664;2023-04-24T13:11:52;5.55;;;1.70;;
56043;SDS011;41912;51.022;3.664;2023-04-24T13:14:17;5.22;;;2.33;;
56043;SDS011;41912;51.022;3.664;2023-04-24T13:16:43;5.70;;;1.58;;
56043;SDS011;41912;51.022;3.664;2023-04-24T13:19:09;7.35;;;1.58;;
56043;SDS011;41912;51.022;3.664;2023-04-24T13:21:35;2.97;;;1.23;;
56043;SDS011;41912;51.022;3.664;2023-04-24T13:24:00;5.75;;;1.30;;
56043;SDS011;41912;51.022;3.664;2023-04-24T13:26:26;3.95;;;1.02;;
56043;SDS011;41912;51.022;3.664;2023-04-24T13:28:52;4.00;;;1.30;;
56043;SDS011;41912;51.022;3.664;2023-04-24T13:31:17;4.30;;;1.90;;
56043;SDS011;41912;51.022;3.664;2023-04-24T13:33:43;4.93;;;1.75;;
56043;SDS011;41912;51.022;3.664;2023-04-24T13:36:09;3.75;;;1.90;;
56043;SDS011;41912;51.022;3.664;2023-04-24T13:38:34;5.38;;;1.60;;
56043;SDS011;41912;51.022;3.664;2023-04-24T13:41:00;5.57;;;1.25;;
56043;SDS011;41912;51.022;3.664;2023-04-24T13:43:26;4.20;;;1.48;;
56043;SDS011;41912;51.022;3.664;2023-04-24T13:45:51;6.88;;;1.63;;
56043;SDS011;41912;51.022;3.664;2023-04-24T13:48:17;8.82;;;1.73;;
56043;SDS011;41912;51.022;3.664;2023-04-24T13:50:43;2.38;;;1.25;;
56043;SDS011;41912;51.022;3.664;2023-04-24T13:53:09;6.07;;;1.45;;
56043;SDS011;41912;51.022;3.664;2023-04-24T13:55:35;5.32;;;1.40;;
56043;SDS011;41912;51.022;3.664;2023-04-24T13:58:01;5.53;;;1.38;;
56043;SDS011;41912;51.022;3.664;2023-04-24T14:00:27;3.70;;;1.17;;
56043;SDS011;41912;51.022;3.664;2023-04-24T14:02:53;4.20;;;1.20;;
56043;SDS011;41912;51.022;3.664;2023-04-24T14:05:19;3.40;;;1.13;;
56043;SDS011;41912;51.022;3.664;2023-04-24T14:07:46;3.45;;;1.20;;
56043;SDS011;41912;51.022;3.664;2023-04-24T14:10:11;3.78;;;1.00;;
56043;SDS011;41912;51.022;3.664;2023-04-24T14:12:37;2.47;;;1.05;;
56043;SDS011;41912;51.022;3.664;2023-04-24T14:15:03;6.20;;;1.35;;
56043;SDS011;41912;51.022;3.664;2023-04-24T14:17:30;2.97;;;1.02;;
56043;SDS011;41912;51.022;3.664;2023-04-24T14:19:55;2.90;;;1.00;;
56043;SDS011;41912;51.022;3.664;2023-04-24T14:22:21;4.03;;;1.10;;
56043;SDS011;41912;51.022;3.664;2023-04-24T14:24:47;3.85;;;1.02;;
56043;SDS011;41912;51.022;3.664;2023-04-24T14:27:13;3.40;;;0.95;;
56043;SDS011;41912;51.022;3.664;2023-04-24T14:29:39;2.65;;;0.80;;
56043;SDS011;41912;51.022;3.664;2023-04-24T14:32:04;3.67;;;1.40;;
56043;SDS011;41912;51.022;3.664;2023-04-24T14:34:30;3.08;;;0.88;;
56043;SDS011;41912;51.022;3.664;2023-04-24T14:36:55;3.22;;;0.93;;
56043;SDS011;41912;51.022;3.664;2023-04-24T14:39:21;1.73;;;0.80;;
56043;SDS011;41912;51.022;3.664;2023-04-24T14:41:47;2.95;;;1.08;;
56043;SDS011;41912;51.022;3.664;2023-04-24T14:44:13;4.65;;;1.08;;
56043;SDS011;41912;51.022;3.664;2023-04-24T14:46:38;1.83;;;0.90;;
56043;SDS011;41912;51.022;3.664;2023-04-24T14:49:04;5.50;;;1.38;;
56043;SDS011;41912;51.022;3.664;2023-04-24T14:51:30;2.63;;;1.00;;
56043;SDS011;41912;51.022;3.664;2023-04-24T14:53:56;3.63;;;1.00;;